Decoded Metar for LERI (Alcantarilla in SPAIN) (IATA:N/A) | Meteo·Mobile Aviation Weather
aviador You're here:

LERI Decoded Metar

Alcantarilla in SPAIN
Report Time2018-12-10 10:00:00
UTC Time2018-12-10 10:32:24
Flight Rules vfr VFR
WindVRB at 01 kt
Visibility9999 m
Phenomena:N/A
Clouds:Scattered 020 Hf
Expected CloudBase > 3,600 ft AGL from Temp-Dew spread
CeilingNone
Temp14°C (ISA -1)
Dew Point05°C (55% RH)
AAT12.5°C
QNH1030 hPa
Density Alt-266 ft
Elevation246 ft
Report Wrong Elevation
Raw Report
METAR LERI 101000Z VRB01KT 9999 SCT020 14/05 Q1030 NOSIG=

Extra information for LERI:More info

Metar Taf Metar & Taf Last 4 Metars F.Rules Stats Wind Profile Meteogram Temp Stats Airport Information Weather charts Add Link Nearby VenuesMetar ALERT Operation Metar Decoded Social comments

TOTANA, (Aeroclub Totana)